DW2509 East Northport NY US current weather conditions

sailwx.info

Wind from 261

Air temperature 5.6° C
Dewpoint 0.1° C

Last reported at 2019-Dec-15 11:27 UTC.
Time now 2019-Dec-15 12:29 UTC

Location: N 40°52' W 073°19'.
View on Google Maps.

See reports from other nearby stations

  
Tides and Currents Weather Stations Pressure Air Temp Water Temp Dewpoint Dewpoint Depression Visibility Wind Speed Wind Dir Waves Ship Positions
date/time (UTC)wind fromknots sea level pressurealtimeterstation pressurevisibilityair tempwater tempwave heightnotes
2019-Dec-15 11:27 261 5.6
2019-Dec-15 10:57 266 5.6
2019-Dec-15 10:27 319 5.6
2019-Dec-15 04:57 301 2 gusting 10 6.7
2019-Dec-15 04:27 323 1 gusting 12 7.8
2019-Dec-15 03:57 266 1 gusting 17 8.3
2019-Dec-15 03:27 273 3 gusting 15 8.9
2019-Dec-15 01:27 288 6 gusting 12 11.1
2019-Dec-15 00:27 269 9 gusting 12 11.7
2019-Dec-14 23:27 258 3 gusting 15 12.2
2019-Dec-14 21:57 227 5 gusting 17 12.8
2019-Dec-14 21:27 211 5 gusting 15 12.8
2019-Dec-14 20:57 205 4 gusting 17 13.3
2019-Dec-14 20:27 208 6 gusting 15 13.9
2019-Dec-14 19:27 215 0 gusting 13 13.9
2019-Dec-14 18:57 163 1 gusting 6 14.4
2019-Dec-14 16:57 204 14.4
2019-Dec-14 16:27 204 14.4
2019-Dec-14 15:57 206 14.4
2019-Dec-14 15:27 206 14.4
2019-Dec-14 14:27 246 6 gusting 6 15.0
2019-Dec-14 12:27 189 0 gusting 10 14.4
2019-Dec-14 11:27 199 14.4
2019-Dec-14 10:57 190 0 gusting 6 14.4
2019-Dec-14 09:57 161 15.0
2019-Dec-14 09:27 186 9 gusting 10 15.0
2019-Dec-14 08:27 337 11.7
2019-Dec-14 07:57 337 11.7
2019-Dec-14 06:57 063 11.7
2019-Dec-14 06:27 111 3 gusting 13 11.7
2019-Dec-14 05:57 061 11.1
2019-Dec-14 05:27 065 1 gusting 9 12.2
2019-Dec-14 02:57 103 4 gusting 11 12.2
2019-Dec-14 02:27 003 11.1
2019-Dec-14 01:27 003 0 gusting 6 8.9
2019-Dec-14 00:57 003 10.6
2019-Dec-13 23:57 003 0 gusting 5 8.9
2019-Dec-13 22:57 003 7.8
2019-Dec-13 22:27 003 7.8
2019-Dec-13 20:27 003 2 gusting 3 6.7
2019-Dec-13 19:27 003 1 gusting 4 6.7
2019-Dec-13 15:27 003 6.1
2019-Dec-13 14:27 003 3.9